sensor_id;sensor_type;location;lat;lon;timestamp;temperature;humidity
51559;DHT22;61650;48.882;2.092;2023-04-25T00:01:04;6.00;99.90
51559;DHT22;61650;48.882;2.092;2023-04-25T00:03:34;5.90;99.90
51559;DHT22;61650;48.882;2.092;2023-04-25T00:06:00;5.70;99.90
51559;DHT22;61650;48.882;2.092;2023-04-25T00:08:29;5.50;99.90
51559;DHT22;61650;48.882;2.092;2023-04-25T00:10:56;5.40;99.90
51559;DHT22;61650;48.882;2.092;2023-04-25T00:13:22;5.30;99.90
51559;DHT22;61650;48.882;2.092;2023-04-25T00:15:48;5.30;99.90
51559;DHT22;61650;48.882;2.092;2023-04-25T00:18:14;5.30;99.90
51559;DHT22;61650;48.882;2.092;2023-04-25T00:20:40;5.30;99.90
51559;DHT22;61650;48.882;2.092;2023-04-25T00:23:13;5.30;99.90
51559;DHT22;61650;48.882;2.092;2023-04-25T00:25:43;5.30;99.90
51559;DHT22;61650;48.882;2.092;2023-04-25T00:28:10;5.30;99.90
51559;DHT22;61650;48.882;2.092;2023-04-25T00:30:36;5.30;99.90
51559;DHT22;61650;48.882;2.092;2023-04-25T00:33:01;5.30;99.90
51559;DHT22;61650;48.882;2.092;2023-04-25T00:35:27;5.30;99.90
51559;DHT22;61650;48.882;2.092;2023-04-25T00:37:54;5.20;99.90
51559;DHT22;61650;48.882;2.092;2023-04-25T00:40:20;5.30;99.90
51559;DHT22;61650;48.882;2.092;2023-04-25T00:42:46;5.40;99.90
51559;DHT22;61650;48.882;2.092;2023-04-25T00:45:13;5.30;99.90
51559;DHT22;61650;48.882;2.092;2023-04-25T00:47:40;5.20;99.90
51559;DHT22;61650;48.882;2.092;2023-04-25T00:50:07;5.20;99.90
51559;DHT22;61650;48.882;2.092;2023-04-25T00:52:32;5.20;99.90
51559;DHT22;61650;48.882;2.092;2023-04-25T00:54:58;5.20;99.90
51559;DHT22;61650;48.882;2.092;2023-04-25T00:57:24;5.30;99.90
51559;DHT22;61650;48.882;2.092;2023-04-25T00:59:51;5.30;99.90
51559;DHT22;61650;48.882;2.092;2023-04-25T01:02:18;5.40;99.90
51559;DHT22;61650;48.882;2.092;2023-04-25T01:04:44;5.40;99.90
51559;DHT22;61650;48.882;2.092;2023-04-25T01:07:11;5.50;99.90
51559;DHT22;61650;48.882;2.092;2023-04-25T01:09:36;5.50;99.90
51559;DHT22;61650;48.882;2.092;2023-04-25T01:12:02;5.50;99.90
51559;DHT22;61650;48.882;2.092;2023-04-25T01:14:28;5.50;99.90
51559;DHT22;61650;48.882;2.092;2023-04-25T01:16:55;5.50;99.90
51559;DHT22;61650;48.882;2.092;2023-04-25T01:19:21;5.50;99.90
51559;DHT22;61650;48.882;2.092;2023-04-25T01:21:47;5.50;99.90
51559;DHT22;61650;48.882;2.092;2023-04-25T01:24:13;5.50;99.90
51559;DHT22;61650;48.882;2.092;2023-04-25T01:26:40;5.50;99.90
51559;DHT22;61650;48.882;2.092;2023-04-25T01:29:09;5.50;99.90
51559;DHT22;61650;48.882;2.092;2023-04-25T01:31:36;5.40;99.90
51559;DHT22;61650;48.882;2.092;2023-04-25T01:34:02;5.30;99.90
51559;DHT22;61650;48.882;2.092;2023-04-25T01:36:28;5.30;99.90
51559;DHT22;61650;48.882;2.092;2023-04-25T01:38:53;5.40;99.90
51559;DHT22;61650;48.882;2.092;2023-04-25T01:41:20;5.40;99.90
51559;DHT22;61650;48.882;2.092;2023-04-25T01:43:48;5.30;99.90
51559;DHT22;61650;48.882;2.092;2023-04-25T01:46:14;5.30;99.90
51559;DHT22;61650;48.882;2.092;2023-04-25T01:48:39;5.40;99.90
51559;DHT22;61650;48.882;2.092;2023-04-25T01:51:05;5.30;99.90
51559;DHT22;61650;48.882;2.092;2023-04-25T01:53:31;5.30;99.90
51559;DHT22;61650;48.882;2.092;2023-04-25T01:55:57;5.40;99.90
51559;DHT22;61650;48.882;2.092;2023-04-25T01:58:22;5.30;99.90
51559;DHT22;61650;48.882;2.092;2023-04-25T02:00:48;5.40;99.90
51559;DHT22;61650;48.882;2.092;2023-04-25T02:03:13;5.40;99.90
51559;DHT22;61650;48.882;2.092;2023-04-25T02:05:39;5.40;99.90
51559;DHT22;61650;48.882;2.092;2023-04-25T02:08:06;5.40;99.90
51559;DHT22;61650;48.882;2.092;2023-04-25T02:10:33;5.50;99.90
51559;DHT22;61650;48.882;2.092;2023-04-25T02:12:59;5.50;99.90
51559;DHT22;61650;48.882;2.092;2023-04-25T02:15:24;5.50;99.90
51559;DHT22;61650;48.882;2.092;2023-04-25T02:17:50;5.50;99.90
51559;DHT22;61650;48.882;2.092;2023-04-25T02:20:18;5.50;99.90
51559;DHT22;61650;48.882;2.092;2023-04-25T02:22:45;5.60;99.90
51559;DHT22;61650;48.882;2.092;2023-04-25T02:25:11;5.50;99.90
51559;DHT22;61650;48.882;2.092;2023-04-25T02:27:37;5.60;99.90
51559;DHT22;61650;48.882;2.092;2023-04-25T02:30:04;5.60;99.90
51559;DHT22;61650;48.882;2.092;2023-04-25T02:32:30;5.40;99.90
51559;DHT22;61650;48.882;2.092;2023-04-25T02:34:55;5.50;99.90
51559;DHT22;61650;48.882;2.092;2023-04-25T02:37:24;5.50;99.90
51559;DHT22;61650;48.882;2.092;2023-04-25T02:39:49;5.50;99.90
51559;DHT22;61650;48.882;2.092;2023-04-25T02:42:15;5.50;99.90
51559;DHT22;61650;48.882;2.092;2023-04-25T02:44:40;5.50;99.90
51559;DHT22;61650;48.882;2.092;2023-04-25T02:47:06;5.50;99.90
51559;DHT22;61650;48.882;2.092;2023-04-25T02:49:32;5.50;99.90
51559;DHT22;61650;48.882;2.092;2023-04-25T02:51:57;5.50;99.90
51559;DHT22;61650;48.882;2.092;2023-04-25T02:54:23;5.60;99.90
51559;DHT22;61650;48.882;2.092;2023-04-25T02:56:48;5.60;99.90
51559;DHT22;61650;48.882;2.092;2023-04-25T02:59:14;5.60;99.90
51559;DHT22;61650;48.882;2.092;2023-04-25T03:01:40;5.60;99.90
51559;DHT22;61650;48.882;2.092;2023-04-25T03:04:05;5.50;99.90
51559;DHT22;61650;48.882;2.092;2023-04-25T03:06:31;5.50;99.90
51559;DHT22;61650;48.882;2.092;2023-04-25T03:08:56;5.50;99.90
51559;DHT22;61650;48.882;2.092;2023-04-25T03:11:22;5.40;99.90
51559;DHT22;61650;48.882;2.092;2023-04-25T03:13:47;5.40;99.90
51559;DHT22;61650;48.882;2.092;2023-04-25T03:16:13;5.40;99.90
51559;DHT22;61650;48.882;2.092;2023-04-25T03:18:39;5.40;99.90
51559;DHT22;61650;48.882;2.092;2023-04-25T03:21:04;5.40;99.90
51559;DHT22;61650;48.882;2.092;2023-04-25T03:23:30;5.50;99.90
51559;DHT22;61650;48.882;2.092;2023-04-25T03:25:56;5.50;99.90
51559;DHT22;61650;48.882;2.092;2023-04-25T03:28:21;5.50;99.90
51559;DHT22;61650;48.882;2.092;2023-04-25T03:30:47;5.60;99.90
51559;DHT22;61650;48.882;2.092;2023-04-25T03:33:13;5.70;99.90
51559;DHT22;61650;48.882;2.092;2023-04-25T03:35:38;5.70;99.90
51559;DHT22;61650;48.882;2.092;2023-04-25T03:38:04;5.70;99.90
51559;DHT22;61650;48.882;2.092;2023-04-25T03:40:29;5.80;99.90
51559;DHT22;61650;48.882;2.092;2023-04-25T03:42:55;5.80;99.90
51559;DHT22;61650;48.882;2.092;2023-04-25T03:45:21;5.80;99.90
51559;DHT22;61650;48.882;2.092;2023-04-25T03:47:46;5.80;99.90
51559;DHT22;61650;48.882;2.092;2023-04-25T03:50:12;5.80;99.90
51559;DHT22;61650;48.882;2.092;2023-04-25T03:52:37;5.70;99.90
51559;DHT22;61650;48.882;2.092;2023-04-25T03:55:03;5.70;99.90
51559;DHT22;61650;48.882;2.092;2023-04-25T03:57:30;5.70;99.90
51559;DHT22;61650;48.882;2.092;2023-04-25T03:59:55;5.70;99.90
51559;DHT22;61650;48.882;2.092;2023-04-25T04:02:21;5.70;99.90
51559;DHT22;61650;48.882;2.092;2023-04-25T04:04:47;5.70;99.90
51559;DHT22;61650;48.882;2.092;2023-04-25T04:07:13;5.70;99.90
51559;DHT22;61650;48.882;2.092;2023-04-25T04:09:38;5.70;99.90
51559;DHT22;61650;48.882;2.092;2023-04-25T04:12:04;5.80;99.90
51559;DHT22;61650;48.882;2.092;2023-04-25T04:14:30;5.90;99.90
51559;DHT22;61650;48.882;2.092;2023-04-25T04:16:55;5.80;99.90
51559;DHT22;61650;48.882;2.092;2023-04-25T04:19:21;5.90;99.90
51559;DHT22;61650;48.882;2.092;2023-04-25T04:21:47;6.00;99.90
51559;DHT22;61650;48.882;2.092;2023-04-25T04:24:12;5.90;99.90
51559;DHT22;61650;48.882;2.092;2023-04-25T04:26:38;6.00;99.90
51559;DHT22;61650;48.882;2.092;2023-04-25T04:29:04;6.00;99.90
51559;DHT22;61650;48.882;2.092;2023-04-25T04:31:29;5.90;99.90
51559;DHT22;61650;48.882;2.092;2023-04-25T04:33:55;5.90;99.90
51559;DHT22;61650;48.882;2.092;2023-04-25T04:36:21;6.00;99.90
51559;DHT22;61650;48.882;2.092;2023-04-25T04:38:48;6.00;99.90
51559;DHT22;61650;48.882;2.092;2023-04-25T04:41:14;5.90;99.90
51559;DHT22;61650;48.882;2.092;2023-04-25T04:43:40;6.00;99.90
51559;DHT22;61650;48.882;2.092;2023-04-25T04:46:05;6.00;99.90
51559;DHT22;61650;48.882;2.092;2023-04-25T04:48:31;6.00;99.90
51559;DHT22;61650;48.882;2.092;2023-04-25T04:51:00;6.00;99.90
51559;DHT22;61650;48.882;2.092;2023-04-25T04:53:26;5.90;99.90
51559;DHT22;61650;48.882;2.092;2023-04-25T04:55:52;6.10;99.90
51559;DHT22;61650;48.882;2.092;2023-04-25T04:58:18;6.00;99.90
51559;DHT22;61650;48.882;2.092;2023-04-25T05:00:44;5.90;99.90
51559;DHT22;61650;48.882;2.092;2023-04-25T05:03:09;5.90;99.90
51559;DHT22;61650;48.882;2.092;2023-04-25T05:05:36;5.80;99.90
51559;DHT22;61650;48.882;2.092;2023-04-25T05:08:05;5.80;99.90
51559;DHT22;61650;48.882;2.092;2023-04-25T05:10:31;5.70;99.90
51559;DHT22;61650;48.882;2.092;2023-04-25T05:12:56;5.90;99.90
51559;DHT22;61650;48.882;2.092;2023-04-25T05:15:22;5.80;99.90
51559;DHT22;61650;48.882;2.092;2023-04-25T05:17:48;5.80;99.90
51559;DHT22;61650;48.882;2.092;2023-04-25T05:20:13;5.90;99.90
51559;DHT22;61650;48.882;2.092;2023-04-25T05:22:39;5.80;99.90
51559;DHT22;61650;48.882;2.092;2023-04-25T05:25:07;5.90;99.90
51559;DHT22;61650;48.882;2.092;2023-04-25T05:27:33;6.00;99.90
51559;DHT22;61650;48.882;2.092;2023-04-25T05:29:59;6.00;99.90
51559;DHT22;61650;48.882;2.092;2023-04-25T05:32:24;6.00;99.90
51559;DHT22;61650;48.882;2.092;2023-04-25T05:34:50;6.00;99.90
51559;DHT22;61650;48.882;2.092;2023-04-25T05:37:17;6.10;99.90
51559;DHT22;61650;48.882;2.092;2023-04-25T05:39:42;6.20;99.90
51559;DHT22;61650;48.882;2.092;2023-04-25T05:42:08;6.10;99.90
51559;DHT22;61650;48.882;2.092;2023-04-25T05:44:33;6.10;99.90
51559;DHT22;61650;48.882;2.092;2023-04-25T05:46:59;6.10;99.90
51559;DHT22;61650;48.882;2.092;2023-04-25T05:49:24;6.20;99.90
51559;DHT22;61650;48.882;2.092;2023-04-25T05:51:50;6.30;99.90
51559;DHT22;61650;48.882;2.092;2023-04-25T05:54:16;6.30;99.90
51559;DHT22;61650;48.882;2.092;2023-04-25T05:56:41;6.30;99.90
51559;DHT22;61650;48.882;2.092;2023-04-25T05:59:07;6.30;99.90
51559;DHT22;61650;48.882;2.092;2023-04-25T06:01:32;6.40;99.90
51559;DHT22;61650;48.882;2.092;2023-04-25T06:03:58;6.40;99.90
51559;DHT22;61650;48.882;2.092;2023-04-25T06:06:23;6.50;99.90
51559;DHT22;61650;48.882;2.092;2023-04-25T06:08:49;6.60;99.90
51559;DHT22;61650;48.882;2.092;2023-04-25T06:11:15;6.50;99.90
51559;DHT22;61650;48.882;2.092;2023-04-25T06:13:41;6.60;99.90
51559;DHT22;61650;48.882;2.092;2023-04-25T06:16:06;6.60;99.90
51559;DHT22;61650;48.882;2.092;2023-04-25T06:18:32;6.60;99.90
51559;DHT22;61650;48.882;2.092;2023-04-25T06:20:58;6.60;99.90
51559;DHT22;61650;48.882;2.092;2023-04-25T06:23:23;6.70;99.90
51559;DHT22;61650;48.882;2.092;2023-04-25T06:25:49;6.80;99.90
51559;DHT22;61650;48.882;2.092;2023-04-25T06:28:15;6.80;99.90
51559;DHT22;61650;48.882;2.092;2023-04-25T06:30:40;6.70;99.90
51559;DHT22;61650;48.882;2.092;2023-04-25T06:33:06;6.70;99.90
51559;DHT22;61650;48.882;2.092;2023-04-25T06:35:34;6.80;99.90
51559;DHT22;61650;48.882;2.092;2023-04-25T06:37:59;6.80;99.90
51559;DHT22;61650;48.882;2.092;2023-04-25T06:40:25;6.80;99.90
51559;DHT22;61650;48.882;2.092;2023-04-25T06:42:51;6.80;99.90
51559;DHT22;61650;48.882;2.092;2023-04-25T06:45:16;6.80;99.90
51559;DHT22;61650;48.882;2.092;2023-04-25T06:47:42;7.00;99.90
51559;DHT22;61650;48.882;2.092;2023-04-25T06:50:08;7.20;99.90
51559;DHT22;61650;48.882;2.092;2023-04-25T06:52:34;6.90;99.90
51559;DHT22;61650;48.882;2.092;2023-04-25T06:54:59;6.90;99.90
51559;DHT22;61650;48.882;2.092;2023-04-25T06:57:25;6.90;99.90
51559;DHT22;61650;48.882;2.092;2023-04-25T06:59:51;7.00;99.90
51559;DHT22;61650;48.882;2.092;2023-04-25T07:02:16;7.00;99.90
51559;DHT22;61650;48.882;2.092;2023-04-25T07:04:42;7.00;99.90
51559;DHT22;61650;48.882;2.092;2023-04-25T07:07:07;6.90;99.90
51559;DHT22;61650;48.882;2.092;2023-04-25T07:09:33;6.90;99.90
51559;DHT22;61650;48.882;2.092;2023-04-25T07:12:00;6.80;99.90
51559;DHT22;61650;48.882;2.092;2023-04-25T07:14:27;6.90;99.90
51559;DHT22;61650;48.882;2.092;2023-04-25T07:16:52;6.80;99.90
51559;DHT22;61650;48.882;2.092;2023-04-25T07:19:18;6.80;99.90
51559;DHT22;61650;48.882;2.092;2023-04-25T07:21:44;6.70;99.90
51559;DHT22;61650;48.882;2.092;2023-04-25T07:24:09;6.60;99.90
51559;DHT22;61650;48.882;2.092;2023-04-25T07:26:35;6.60;99.90
51559;DHT22;61650;48.882;2.092;2023-04-25T07:29:00;6.50;99.90
51559;DHT22;61650;48.882;2.092;2023-04-25T07:31:26;6.60;99.90
51559;DHT22;61650;48.882;2.092;2023-04-25T07:33:52;6.40;99.90
51559;DHT22;61650;48.882;2.092;2023-04-25T07:36:17;6.30;99.90
51559;DHT22;61650;48.882;2.092;2023-04-25T07:38:43;6.30;99.90
51559;DHT22;61650;48.882;2.092;2023-04-25T07:41:09;6.40;99.90
51559;DHT22;61650;48.882;2.092;2023-04-25T07:43:34;6.50;99.90
51559;DHT22;61650;48.882;2.092;2023-04-25T07:46:00;6.60;99.90
51559;DHT22;61650;48.882;2.092;2023-04-25T07:48:25;6.70;99.90
51559;DHT22;61650;48.882;2.092;2023-04-25T07:50:51;6.70;99.90
51559;DHT22;61650;48.882;2.092;2023-04-25T07:53:16;6.60;99.90
51559;DHT22;61650;48.882;2.092;2023-04-25T07:55:43;6.60;99.90
51559;DHT22;61650;48.882;2.092;2023-04-25T07:58:10;6.70;99.90
51559;DHT22;61650;48.882;2.092;2023-04-25T08:00:36;6.70;99.90
51559;DHT22;61650;48.882;2.092;2023-04-25T08:03:02;6.90;99.90
51559;DHT22;61650;48.882;2.092;2023-04-25T08:05:28;7.10;99.90
51559;DHT22;61650;48.882;2.092;2023-04-25T08:07:54;6.90;99.90
51559;DHT22;61650;48.882;2.092;2023-04-25T08:10:19;6.70;99.90
51559;DHT22;61650;48.882;2.092;2023-04-25T08:12:45;6.80;99.90
51559;DHT22;61650;48.882;2.092;2023-04-25T08:15:11;6.90;99.90
51559;DHT22;61650;48.882;2.092;2023-04-25T08:17:39;6.90;99.90
51559;DHT22;61650;48.882;2.092;2023-04-25T08:20:05;6.90;99.90
51559;DHT22;61650;48.882;2.092;2023-04-25T08:22:31;6.90;99.90
51559;DHT22;61650;48.882;2.092;2023-04-25T08:24:57;6.80;99.90
51559;DHT22;61650;48.882;2.092;2023-04-25T08:27:22;6.90;99.90
51559;DHT22;61650;48.882;2.092;2023-04-25T08:29:49;7.00;99.90
51559;DHT22;61650;48.882;2.092;2023-04-25T08:32:15;6.80;99.90
51559;DHT22;61650;48.882;2.092;2023-04-25T08:34:41;6.80;99.90
51559;DHT22;61650;48.882;2.092;2023-04-25T08:37:08;6.80;99.90
51559;DHT22;61650;48.882;2.092;2023-04-25T08:39:38;6.90;99.90
51559;DHT22;61650;48.882;2.092;2023-04-25T08:42:06;6.90;99.90
51559;DHT22;61650;48.882;2.092;2023-04-25T08:44:35;7.10;99.90
51559;DHT22;61650;48.882;2.092;2023-04-25T08:47:03;7.30;99.90
51559;DHT22;61650;48.882;2.092;2023-04-25T08:49:34;7.40;99.90
51559;DHT22;61650;48.882;2.092;2023-04-25T08:52:01;7.50;99.90
51559;DHT22;61650;48.882;2.092;2023-04-25T08:54:28;7.40;99.90
51559;DHT22;61650;48.882;2.092;2023-04-25T08:56:54;7.20;99.90
51559;DHT22;61650;48.882;2.092;2023-04-25T08:59:21;7.30;99.90
51559;DHT22;61650;48.882;2.092;2023-04-25T09:01:49;7.10;99.90
51559;DHT22;61650;48.882;2.092;2023-04-25T09:04:18;7.00;99.90
51559;DHT22;61650;48.882;2.092;2023-04-25T09:06:46;7.10;99.90
51559;DHT22;61650;48.882;2.092;2023-04-25T09:09:11;7.10;99.90
51559;DHT22;61650;48.882;2.092;2023-04-25T09:11:37;6.80;99.90
51559;DHT22;61650;48.882;2.092;2023-04-25T09:14:17;6.80;99.90
51559;DHT22;61650;48.882;2.092;2023-04-25T09:19:31;6.90;99.90
51559;DHT22;61650;48.882;2.092;2023-04-25T09:21:58;6.90;99.90
51559;DHT22;61650;48.882;2.092;2023-04-25T09:24:31;7.10;99.90
51559;DHT22;61650;48.882;2.092;2023-04-25T09:26:57;7.10;99.90
51559;DHT22;61650;48.882;2.092;2023-04-25T09:29:29;7.10;99.90
51559;DHT22;61650;48.882;2.092;2023-04-25T09:32:25;7.10;99.90
51559;DHT22;61650;48.882;2.092;2023-04-25T09:34:57;7.10;99.90
51559;DHT22;61650;48.882;2.092;2023-04-25T09:37:23;7.10;99.90
51559;DHT22;61650;48.882;2.092;2023-04-25T09:39:52;7.00;99.90
51559;DHT22;61650;48.882;2.092;2023-04-25T09:42:18;7.00;99.90
51559;DHT22;61650;48.882;2.092;2023-04-25T09:44:47;7.10;99.90
51559;DHT22;61650;48.882;2.092;2023-04-25T09:47:16;7.20;99.90
51559;DHT22;61650;48.882;2.092;2023-04-25T09:49:47;7.30;99.90
51559;DHT22;61650;48.882;2.092;2023-04-25T09:52:24;7.50;99.90
51559;DHT22;61650;48.882;2.092;2023-04-25T09:54:51;7.70;99.90
51559;DHT22;61650;48.882;2.092;2023-04-25T09:57:23;7.70;99.90
51559;DHT22;61650;48.882;2.092;2023-04-25T09:59:51;7.80;99.90
51559;DHT22;61650;48.882;2.092;2023-04-25T10:02:25;7.70;99.90
51559;DHT22;61650;48.882;2.092;2023-04-25T10:04:53;7.70;99.90
51559;DHT22;61650;48.882;2.092;2023-04-25T10:07:22;7.40;99.90
51559;DHT22;61650;48.882;2.092;2023-04-25T10:09:58;7.40;99.90
51559;DHT22;61650;48.882;2.092;2023-04-25T10:12:26;7.20;99.90
51559;DHT22;61650;48.882;2.092;2023-04-25T10:14:52;7.20;99.90
51559;DHT22;61650;48.882;2.092;2023-04-25T10:17:19;7.20;99.90
51559;DHT22;61650;48.882;2.092;2023-04-25T10:19:49;7.40;99.90
51559;DHT22;61650;48.882;2.092;2023-04-25T10:22:26;7.50;99.90
51559;DHT22;61650;48.882;2.092;2023-04-25T10:24:53;7.50;99.90
51559;DHT22;61650;48.882;2.092;2023-04-25T10:27:20;7.90;99.90
51559;DHT22;61650;48.882;2.092;2023-04-25T10:30:09;7.80;99.90
51559;DHT22;61650;48.882;2.092;2023-04-25T10:32:45;7.80;99.90
51559;DHT22;61650;48.882;2.092;2023-04-25T10:35:16;8.10;99.90
51559;DHT22;61650;48.882;2.092;2023-04-25T10:38:08;8.00;99.90
51559;DHT22;61650;48.882;2.092;2023-04-25T10:40:34;8.00;99.90
51559;DHT22;61650;48.882;2.092;2023-04-25T10:46:01;8.20;99.90
51559;DHT22;61650;48.882;2.092;2023-04-25T10:48:29;8.20;99.90
51559;DHT22;61650;48.882;2.092;2023-04-25T10:51:11;8.10;99.90
51559;DHT22;61650;48.882;2.092;2023-04-25T10:53:37;8.00;99.90
51559;DHT22;61650;48.882;2.092;2023-04-25T10:56:17;8.10;99.90
51559;DHT22;61650;48.882;2.092;2023-04-25T10:58:45;8.00;99.90
51559;DHT22;61650;48.882;2.092;2023-04-25T11:01:13;8.20;99.90
51559;DHT22;61650;48.882;2.092;2023-04-25T11:03:43;8.40;99.90
51559;DHT22;61650;48.882;2.092;2023-04-25T11:08:51;8.30;99.90
51559;DHT22;61650;48.882;2.092;2023-04-25T11:11:17;8.30;99.90
51559;DHT22;61650;48.882;2.092;2023-04-25T11:13:44;8.30;99.90
51559;DHT22;61650;48.882;2.092;2023-04-25T11:16:10;8.10;99.90
51559;DHT22;61650;48.882;2.092;2023-04-25T11:18:35;8.10;99.90
51559;DHT22;61650;48.882;2.092;2023-04-25T11:21:03;8.00;99.90
51559;DHT22;61650;48.882;2.092;2023-04-25T11:23:30;8.00;99.90
51559;DHT22;61650;48.882;2.092;2023-04-25T11:25:55;8.10;99.90
51559;DHT22;61650;48.882;2.092;2023-04-25T11:28:22;8.20;99.90
51559;DHT22;61650;48.882;2.092;2023-04-25T11:30:51;8.30;99.90
51559;DHT22;61650;48.882;2.092;2023-04-25T11:33:17;8.30;99.90
51559;DHT22;61650;48.882;2.092;2023-04-25T11:35:43;8.30;99.90
51559;DHT22;61650;48.882;2.092;2023-04-25T11:38:08;8.40;99.90
51559;DHT22;61650;48.882;2.092;2023-04-25T11:40:35;8.40;99.90
51559;DHT22;61650;48.882;2.092;2023-04-25T11:43:01;8.50;99.90
51559;DHT22;61650;48.882;2.092;2023-04-25T11:45:27;8.60;99.90
51559;DHT22;61650;48.882;2.092;2023-04-25T11:47:54;8.90;99.90
51559;DHT22;61650;48.882;2.092;2023-04-25T11:50:20;9.10;99.90
51559;DHT22;61650;48.882;2.092;2023-04-25T11:52:47;9.20;99.90
51559;DHT22;61650;48.882;2.092;2023-04-25T11:55:14;9.40;99.90
51559;DHT22;61650;48.882;2.092;2023-04-25T11:57:42;9.60;99.90
51559;DHT22;61650;48.882;2.092;2023-04-25T12:00:12;9.50;99.90
51559;DHT22;61650;48.882;2.092;2023-04-25T12:02:46;9.20;99.90
51559;DHT22;61650;48.882;2.092;2023-04-25T12:05:13;9.10;99.90
51559;DHT22;61650;48.882;2.092;2023-04-25T12:07:39;9.00;99.90
51559;DHT22;61650;48.882;2.092;2023-04-25T12:10:11;8.90;99.90
51559;DHT22;61650;48.882;2.092;2023-04-25T12:12:41;9.00;99.90
51559;DHT22;61650;48.882;2.092;2023-04-25T12:17:46;8.90;99.90
51559;DHT22;61650;48.882;2.092;2023-04-25T12:20:16;8.80;99.90
51559;DHT22;61650;48.882;2.092;2023-04-25T12:22:44;8.90;99.90
51559;DHT22;61650;48.882;2.092;2023-04-25T12:25:11;9.10;99.90
51559;DHT22;61650;48.882;2.092;2023-04-25T12:27:37;9.50;99.90
51559;DHT22;61650;48.882;2.092;2023-04-25T12:30:03;10.60;99.90
51559;DHT22;61650;48.882;2.092;2023-04-25T12:32:29;11.20;99.90
51559;DHT22;61650;48.882;2.092;2023-04-25T12:34:54;11.10;99.90
51559;DHT22;61650;48.882;2.092;2023-04-25T12:37:21;10.90;99.90
51559;DHT22;61650;48.882;2.092;2023-04-25T12:39:46;11.10;99.90
51559;DHT22;61650;48.882;2.092;2023-04-25T12:42:12;11.10;99.90
51559;DHT22;61650;48.882;2.092;2023-04-25T12:44:38;11.10;99.90
51559;DHT22;61650;48.882;2.092;2023-04-25T12:47:04;10.70;99.90
51559;DHT22;61650;48.882;2.092;2023-04-25T12:49:31;10.50;99.90
51559;DHT22;61650;48.882;2.092;2023-04-25T12:51:57;10.30;99.90
51559;DHT22;61650;48.882;2.092;2023-04-25T12:54:22;10.10;99.90
51559;DHT22;61650;48.882;2.092;2023-04-25T12:56:48;10.20;99.90
51559;DHT22;61650;48.882;2.092;2023-04-25T12:59:13;10.10;99.90
51559;DHT22;61650;48.882;2.092;2023-04-25T13:01:39;10.20;99.90
51559;DHT22;61650;48.882;2.092;2023-04-25T13:04:05;10.20;99.90
51559;DHT22;61650;48.882;2.092;2023-04-25T13:06:30;10.10;99.90
51559;DHT22;61650;48.882;2.092;2023-04-25T13:08:56;10.00;99.90
51559;DHT22;61650;48.882;2.092;2023-04-25T13:11:22;10.10;99.90
51559;DHT22;61650;48.882;2.092;2023-04-25T13:13:47;10.10;99.90
51559;DHT22;61650;48.882;2.092;2023-04-25T13:16:13;10.10;99.90
51559;DHT22;61650;48.882;2.092;2023-04-25T13:18:40;10.70;99.90
51559;DHT22;61650;48.882;2.092;2023-04-25T13:21:05;12.40;99.90
51559;DHT22;61650;48.882;2.092;2023-04-25T13:23:31;14.10;99.90
51559;DHT22;61650;48.882;2.092;2023-04-25T13:25:57;14.90;99.90
51559;DHT22;61650;48.882;2.092;2023-04-25T13:28:24;14.90;99.90
51559;DHT22;61650;48.882;2.092;2023-04-25T13:30:50;13.70;94.20
51559;DHT22;61650;48.882;2.092;2023-04-25T13:33:17;12.40;88.40
51559;DHT22;61650;48.882;2.092;2023-04-25T13:35:42;11.60;99.90
51559;DHT22;61650;48.882;2.092;2023-04-25T13:38:08;10.90;99.90
51559;DHT22;61650;48.882;2.092;2023-04-25T13:40:34;10.60;99.90
51559;DHT22;61650;48.882;2.092;2023-04-25T13:43:01;10.40;99.90
51559;DHT22;61650;48.882;2.092;2023-04-25T13:45:26;10.30;99.90
51559;DHT22;61650;48.882;2.092;2023-04-25T13:47:52;10.10;99.90
51559;DHT22;61650;48.882;2.092;2023-04-25T13:50:17;10.00;99.90
51559;DHT22;61650;48.882;2.092;2023-04-25T13:52:43;9.90;99.90
51559;DHT22;61650;48.882;2.092;2023-04-25T13:55:09;9.90;99.90
51559;DHT22;61650;48.882;2.092;2023-04-25T13:57:35;9.90;99.90
51559;DHT22;61650;48.882;2.092;2023-04-25T14:00:02;9.90;99.90
51559;DHT22;61650;48.882;2.092;2023-04-25T14:02:37;9.90;99.90
51559;DHT22;61650;48.882;2.092;2023-04-25T14:05:04;9.90;99.90
51559;DHT22;61650;48.882;2.092;2023-04-25T14:07:30;9.90;99.90
51559;DHT22;61650;48.882;2.092;2023-04-25T14:09:56;10.00;99.90
51559;DHT22;61650;48.882;2.092;2023-04-25T14:12:23;10.00;99.90
51559;DHT22;61650;48.882;2.092;2023-04-25T14:14:48;10.10;99.90
51559;DHT22;61650;48.882;2.092;2023-04-25T14:17:14;10.10;99.90
51559;DHT22;61650;48.882;2.092;2023-04-25T14:19:39;10.10;99.90
51559;DHT22;61650;48.882;2.092;2023-04-25T14:22:08;10.10;99.90
51559;DHT22;61650;48.882;2.092;2023-04-25T14:24:34;10.00;99.90
51559;DHT22;61650;48.882;2.092;2023-04-25T14:27:00;10.20;99.90
51559;DHT22;61650;48.882;2.092;2023-04-25T14:29:26;10.20;99.90
51559;DHT22;61650;48.882;2.092;2023-04-25T14:31:52;10.10;99.90
51559;DHT22;61650;48.882;2.092;2023-04-25T14:34:18;10.30;99.90
51559;DHT22;61650;48.882;2.092;2023-04-25T14:36:44;10.40;99.90
51559;DHT22;61650;48.882;2.092;2023-04-25T14:39:10;10.50;99.90
51559;DHT22;61650;48.882;2.092;2023-04-25T14:41:35;10.60;86.30
51559;DHT22;61650;48.882;2.092;2023-04-25T14:44:01;10.50;99.90
51559;DHT22;61650;48.882;2.092;2023-04-25T14:46:26;10.40;89.20
51559;DHT22;61650;48.882;2.092;2023-04-25T14:48:52;10.20;75.00
51559;DHT22;61650;48.882;2.092;2023-04-25T14:51:18;10.10;74.50
51559;DHT22;61650;48.882;2.092;2023-04-25T14:53:44;10.10;80.70
51559;DHT22;61650;48.882;2.092;2023-04-25T14:56:09;10.20;85.20
51559;DHT22;61650;48.882;2.092;2023-04-25T14:58:35;10.30;83.70
51559;DHT22;61650;48.882;2.092;2023-04-25T15:01:01;10.40;77.50
51559;DHT22;61650;48.882;2.092;2023-04-25T15:03:26;10.30;76.80
51559;DHT22;61650;48.882;2.092;2023-04-25T15:05:54;10.20;72.30
51559;DHT22;61650;48.882;2.092;2023-04-25T15:08:20;10.10;76.20
51559;DHT22;61650;48.882;2.092;2023-04-25T15:10:46;10.20;74.30
51559;DHT22;61650;48.882;2.092;2023-04-25T15:13:11;10.30;82.90
51559;DHT22;61650;48.882;2.092;2023-04-25T15:15:37;10.50;75.10
51559;DHT22;61650;48.882;2.092;2023-04-25T15:18:03;10.60;80.70
51559;DHT22;61650;48.882;2.092;2023-04-25T15:20:28;10.70;84.50
51559;DHT22;61650;48.882;2.092;2023-04-25T15:22:55;11.10;92.20
51559;DHT22;61650;48.882;2.092;2023-04-25T15:25:21;11.10;70.20
51559;DHT22;61650;48.882;2.092;2023-04-25T15:27:47;11.10;92.90
51559;DHT22;61650;48.882;2.092;2023-04-25T15:30:15;11.20;90.20
51559;DHT22;61650;48.882;2.092;2023-04-25T15:32:42;11.20;91.00
51559;DHT22;61650;48.882;2.092;2023-04-25T15:35:07;11.30;95.40
51559;DHT22;61650;48.882;2.092;2023-04-25T15:37:34;11.30;97.00
51559;DHT22;61650;48.882;2.092;2023-04-25T15:40:09;11.30;79.70
51559;DHT22;61650;48.882;2.092;2023-04-25T15:42:44;11.10;92.30
51559;DHT22;61650;48.882;2.092;2023-04-25T15:45:16;10.90;76.00
51559;DHT22;61650;48.882;2.092;2023-04-25T15:47:43;10.80;85.70
51559;DHT22;61650;48.882;2.092;2023-04-25T15:50:09;10.70;78.10